createdAt,value
2023-04-23T00:01:17.758Z,40.40
2023-04-23T00:03:46.685Z,41.40
2023-04-23T00:06:15.362Z,41.17
2023-04-23T00:08:44.094Z,40.73
2023-04-23T00:11:14.006Z,40.57
2023-04-23T00:13:42.360Z,43.13
2023-04-23T00:16:11.745Z,40.97
2023-04-23T00:18:39.927Z,43.20
2023-04-23T00:21:09.216Z,44.20
2023-04-23T00:23:37.435Z,45.90
2023-04-23T00:26:05.738Z,48.03
2023-04-23T00:28:35.241Z,43.13
2023-04-23T00:31:03.417Z,43.03
2023-04-23T00:33:31.723Z,44.90
2023-04-23T00:35:59.868Z,49.60
2023-04-23T00:38:28.079Z,45.37
2023-04-23T00:40:56.498Z,44.17
2023-04-23T00:43:24.911Z,46.93
2023-04-23T00:45:54.476Z,47.50
2023-04-23T00:48:22.853Z,45.17
2023-04-23T00:50:51.169Z,48.70
2023-04-23T00:53:19.331Z,47.33
2023-04-23T00:55:47.861Z,46.47
2023-04-23T00:58:16.042Z,45.53
2023-04-23T01:00:46.509Z,46.33
2023-04-23T01:03:18.479Z,45.03
2023-04-23T01:05:47.040Z,45.83
2023-04-23T01:08:16.704Z,42.87
2023-04-23T01:10:45.522Z,41.47
2023-04-23T01:13:13.656Z,46.30
2023-04-23T01:15:42.329Z,41.90
2023-04-23T01:18:11.085Z,43.70
2023-04-23T01:20:40.669Z,39.07
2023-04-23T01:23:10.213Z,40.40
2023-04-23T01:25:38.432Z,39.50
2023-04-23T01:28:07.490Z,39.57
2023-04-23T01:30:35.786Z,40.93
2023-04-23T01:33:04.026Z,42.70
2023-04-23T01:35:32.908Z,41.27
2023-04-23T01:38:02.335Z,40.70
2023-04-23T01:40:31.883Z,41.43
2023-04-23T01:43:00.085Z,39.93
2023-04-23T01:45:28.316Z,38.67
2023-04-23T01:47:56.553Z,41.00
2023-04-23T01:50:26.162Z,41.43
2023-04-23T01:52:54.296Z,39.63
2023-04-23T01:55:23.623Z,39.20
2023-04-23T01:57:53.238Z,37.20
2023-04-23T02:00:21.549Z,37.27
2023-04-23T02:02:51.615Z,37.00
2023-04-23T02:05:20.737Z,34.27
2023-04-23T02:07:49.945Z,33.93
2023-04-23T02:10:18.641Z,34.47
2023-04-23T02:12:46.999Z,33.87
2023-04-23T02:15:16.987Z,32.30
2023-04-23T02:17:45.217Z,31.10
2023-04-23T02:20:13.718Z,29.50
2023-04-23T02:22:42.605Z,31.77
2023-04-23T02:25:11.023Z,31.47
2023-04-23T02:27:39.242Z,32.90
2023-04-23T02:30:09.267Z,31.53
2023-04-23T02:32:38.960Z,29.63
2023-04-23T02:35:09.390Z,28.83
2023-04-23T02:37:37.999Z,30.33
2023-04-23T02:40:06.852Z,28.10
2023-04-23T02:42:35.133Z,28.37
2023-04-23T02:45:03.313Z,29.90
2023-04-23T02:47:31.616Z,28.37
2023-04-23T02:50:03.268Z,30.27
2023-04-23T02:52:31.507Z,27.20
2023-04-23T02:54:59.705Z,26.97
2023-04-23T02:57:28.148Z,29.47
2023-04-23T02:59:56.488Z,28.63
2023-04-23T03:02:24.821Z,29.97
2023-04-23T03:04:53.121Z,28.13
2023-04-23T03:07:22.638Z,28.10
2023-04-23T03:09:50.842Z,27.40
2023-04-23T03:12:19.064Z,28.10
2023-04-23T03:14:47.218Z,32.23
2023-04-23T03:17:15.382Z,29.07
2023-04-23T03:19:43.504Z,27.33
2023-04-23T03:22:11.633Z,26.33
2023-04-23T03:24:41.478Z,29.47
2023-04-23T03:27:09.814Z,27.83
2023-04-23T03:29:38.424Z,27.00
2023-04-23T03:32:07.103Z,28.33
2023-04-23T03:34:35.288Z,28.47
2023-04-23T03:37:03.414Z,27.07
2023-04-23T03:39:31.555Z,28.03
2023-04-23T03:42:02.038Z,29.40
2023-04-23T03:44:30.281Z,27.50
2023-04-23T03:46:58.521Z,27.43
2023-04-23T03:49:27.685Z,25.20
2023-04-23T03:51:55.864Z,28.63
2023-04-23T03:54:25.753Z,26.97
2023-04-23T03:56:53.875Z,26.70
2023-04-23T03:59:23.793Z,26.20
2023-04-23T04:01:51.983Z,27.60
2023-04-23T04:04:20.464Z,28.00
2023-04-23T04:06:48.863Z,25.70
2023-04-23T04:09:17.343Z,26.10
2023-04-23T04:11:45.519Z,24.90
2023-04-23T04:14:13.741Z,25.67
2023-04-23T04:16:43.241Z,25.57
2023-04-23T04:19:11.993Z,25.50
2023-04-23T04:21:40.197Z,25.20
2023-04-23T04:24:08.720Z,24.80
2023-04-23T04:26:37.302Z,24.20
2023-04-23T04:29:05.612Z,23.27
2023-04-23T04:31:33.944Z,24.50
2023-04-23T04:34:03.462Z,23.23
2023-04-23T04:36:31.869Z,24.00
2023-04-23T04:39:00.705Z,24.70
2023-04-23T04:41:29.028Z,25.13
2023-04-23T04:43:58.569Z,23.80
2023-04-23T04:46:29.248Z,23.80
2023-04-23T04:48:57.615Z,25.27
2023-04-23T04:51:28.445Z,24.13
2023-04-23T04:53:56.613Z,25.00
2023-04-23T04:56:25.818Z,23.90
2023-04-23T04:58:54.011Z,23.63
2023-04-23T05:01:23.144Z,23.60
2023-04-23T05:03:51.505Z,23.87
2023-04-23T05:06:19.804Z,23.33
2023-04-23T05:08:49.520Z,24.50
2023-04-23T05:11:17.868Z,24.80
2023-04-23T05:13:46.314Z,22.83
2023-04-23T05:16:14.648Z,24.37
2023-04-23T05:18:43.319Z,25.27
2023-04-23T05:21:11.654Z,24.63
2023-04-23T05:23:39.825Z,23.97
2023-04-23T05:26:09.630Z,23.73
2023-04-23T05:28:37.973Z,23.97
2023-04-23T05:31:06.326Z,23.33
2023-04-23T05:33:46.240Z,24.47
2023-04-23T05:36:17.308Z,23.47
2023-04-23T05:38:45.516Z,23.10
2023-04-23T05:41:15.563Z,24.67
2023-04-23T05:43:44.069Z,24.87
2023-04-23T05:46:12.384Z,22.97
2023-04-23T05:48:40.637Z,25.37
2023-04-23T05:51:08.888Z,23.27
2023-04-23T05:53:37.086Z,22.37
2023-04-23T05:56:05.551Z,23.97
2023-04-23T05:58:35.192Z,23.77
2023-04-23T06:01:03.457Z,23.50
2023-04-23T06:03:32.012Z,22.47
2023-04-23T06:06:00.411Z,22.60
2023-04-23T06:08:29.391Z,22.03
2023-04-23T06:10:58.111Z,22.67
2023-04-23T06:13:28.112Z,18.97
2023-04-23T06:15:57.611Z,19.17
2023-04-23T06:18:26.178Z,17.00
2023-04-23T06:20:56.877Z,19.53
2023-04-23T06:23:25.026Z,15.23
2023-04-23T06:25:53.200Z,16.73
2023-04-23T06:28:21.559Z,16.53
2023-04-23T06:30:49.752Z,14.93
2023-04-23T06:33:19.300Z,14.80
2023-04-23T06:35:47.606Z,16.13
2023-04-23T06:38:15.908Z,15.73
2023-04-23T06:40:44.104Z,13.13
2023-04-23T06:43:12.826Z,14.70
2023-04-23T06:45:40.989Z,14.37
2023-04-23T06:48:09.216Z,14.33
2023-04-23T06:50:39.410Z,14.97
2023-04-23T06:53:07.596Z,14.73
2023-04-23T06:55:36.041Z,16.13
2023-04-23T06:58:04.208Z,13.77
2023-04-23T07:00:32.938Z,14.27
2023-04-23T07:03:01.462Z,14.87
2023-04-23T07:05:29.733Z,17.80
2023-04-23T07:07:59.246Z,13.30
2023-04-23T07:10:27.408Z,12.57
2023-04-23T07:12:55.953Z,11.77
2023-04-23T07:15:24.301Z,15.43
2023-04-23T07:17:52.714Z,12.27
2023-04-23T07:20:21.307Z,13.57
2023-04-23T07:22:49.507Z,12.97
2023-04-23T07:25:19.056Z,12.27
2023-04-23T07:27:47.388Z,10.33
2023-04-23T07:30:16.238Z,14.33
2023-04-23T07:32:44.628Z,14.83
2023-04-23T07:35:12.924Z,10.73
2023-04-23T07:37:41.224Z,11.47
2023-04-23T07:40:10.124Z,12.63
2023-04-23T07:42:39.900Z,11.93
2023-04-23T07:45:08.731Z,10.97
2023-04-23T07:47:36.983Z,13.37
2023-04-23T07:50:05.340Z,13.47
2023-04-23T07:52:33.533Z,12.97
2023-04-23T07:55:01.748Z,11.60
2023-04-23T07:57:29.884Z,11.10
2023-04-23T07:59:59.374Z,8.60
2023-04-23T08:02:28.402Z,11.30
2023-04-23T08:04:56.965Z,12.73
2023-04-23T08:07:25.284Z,9.57
2023-04-23T08:09:53.434Z,11.60
2023-04-23T08:12:21.681Z,9.53
2023-04-23T08:14:50.985Z,11.90
2023-04-23T08:17:20.503Z,12.47
2023-04-23T08:19:48.615Z,12.20
2023-04-23T08:22:17.462Z,10.30
2023-04-23T08:24:46.278Z,11.53
2023-04-23T08:27:14.445Z,12.83
2023-04-23T08:29:42.866Z,11.47
2023-04-23T08:32:11.448Z,13.10
2023-04-23T08:34:41.108Z,13.80
2023-04-23T08:37:16.590Z,15.00
2023-04-23T08:39:51.711Z,14.03
2023-04-23T08:42:22.829Z,10.83
2023-04-23T08:44:54.115Z,11.10
2023-04-23T08:47:26.014Z,13.10
2023-04-23T08:49:56.548Z,13.33
2023-04-23T08:52:25.438Z,13.23
2023-04-23T08:54:54.831Z,10.50
2023-04-23T08:57:23.834Z,14.90
2023-04-23T08:59:52.066Z,12.90
2023-04-23T09:02:20.745Z,13.97
2023-04-23T09:04:50.874Z,14.27
2023-04-23T09:07:21.765Z,16.33
2023-04-23T09:09:50.103Z,13.30
2023-04-23T09:12:18.283Z,12.20
2023-04-23T09:14:46.504Z,15.10
2023-04-23T09:17:14.738Z,15.43
2023-04-23T09:19:43.731Z,14.17
2023-04-23T09:22:12.070Z,13.07
2023-04-23T09:24:43.807Z,12.73
2023-04-23T09:27:12.221Z,13.33
2023-04-23T09:29:40.513Z,13.77
2023-04-23T09:32:09.823Z,10.23
2023-04-23T09:34:38.690Z,13.23
2023-04-23T09:37:07.894Z,9.57
2023-04-23T09:39:36.710Z,10.17
2023-04-23T09:42:08.462Z,8.23
2023-04-23T09:44:36.783Z,10.57
2023-04-23T09:47:09.576Z,10.03
2023-04-23T09:49:47.288Z,11.77
2023-04-23T09:52:15.497Z,13.50
2023-04-23T09:54:46.248Z,11.17
2023-04-23T09:57:15.868Z,9.83
2023-04-23T09:59:48.852Z,10.87
2023-04-23T10:02:20.003Z,10.10
2023-04-23T10:04:58.571Z,7.33
2023-04-23T10:07:35.522Z,9.67
2023-04-23T10:10:03.832Z,10.57
2023-04-23T10:12:50.251Z,8.37
2023-04-23T10:15:21.825Z,8.80
2023-04-23T10:17:51.210Z,8.60
2023-04-23T10:20:19.671Z,7.43
2023-04-23T10:22:47.956Z,10.33
2023-04-23T10:25:16.833Z,9.50
2023-04-23T10:27:53.920Z,12.00
2023-04-23T10:30:23.555Z,10.00
2023-04-23T10:32:52.197Z,9.50
2023-04-23T10:35:20.462Z,7.00
2023-04-23T10:37:50.035Z,6.93
2023-04-23T10:40:22.503Z,6.33
2023-04-23T10:42:52.280Z,9.27
2023-04-23T10:45:24.848Z,4.87
2023-04-23T10:47:55.964Z,4.73
2023-04-23T10:50:24.948Z,10.13
2023-04-23T10:52:54.454Z,7.47
2023-04-23T10:55:23.602Z,5.53
2023-04-23T10:58:01.737Z,7.77
2023-04-23T11:00:31.515Z,7.33
2023-04-23T11:02:59.937Z,8.53
2023-04-23T11:05:29.306Z,7.07
2023-04-23T11:08:18.241Z,6.17
2023-04-23T11:10:57.668Z,6.30
2023-04-23T11:13:27.997Z,5.83
2023-04-23T11:16:14.856Z,5.67
2023-04-23T11:19:03.536Z,7.07
2023-04-23T11:21:50.470Z,5.83
2023-04-23T11:24:18.690Z,6.83
2023-04-23T11:26:48.690Z,5.40
2023-04-23T11:29:18.546Z,6.23
2023-04-23T11:32:00.984Z,7.83
2023-04-23T11:34:31.054Z,6.47
2023-04-23T11:37:00.691Z,6.43
2023-04-23T11:39:28.977Z,7.47
2023-04-23T11:41:59.335Z,7.13
2023-04-23T11:44:28.980Z,5.27
2023-04-23T11:46:58.461Z,9.47
2023-04-23T11:49:26.862Z,6.93
2023-04-23T11:51:55.097Z,7.37
2023-04-23T11:54:28.167Z,9.03
2023-04-23T11:56:56.540Z,5.57
2023-04-23T11:59:24.877Z,7.63
2023-04-23T12:01:55.072Z,5.77
2023-04-23T12:04:24.145Z,6.17
2023-04-23T12:06:53.738Z,4.77
2023-04-23T12:09:23.539Z,4.10
2023-04-23T12:11:52.077Z,5.20
2023-04-23T12:14:23.943Z,5.90
2023-04-23T12:16:53.659Z,6.70
2023-04-23T12:19:22.906Z,8.27
2023-04-23T12:21:55.731Z,6.53
2023-04-23T12:24:24.680Z,9.07
2023-04-23T12:26:54.563Z,8.37
2023-04-23T12:29:23.922Z,4.13
2023-04-23T12:31:53.934Z,5.43
2023-04-23T12:34:22.912Z,3.23
2023-04-23T12:36:52.168Z,5.47
2023-04-23T12:39:24.876Z,7.60
2023-04-23T12:41:53.986Z,6.20
2023-04-23T12:44:22.303Z,5.13
2023-04-23T12:46:59.018Z,5.57
2023-04-23T12:49:27.997Z,5.20
2023-04-23T12:52:00.783Z,2.93
2023-04-23T12:54:29.581Z,3.33
2023-04-23T12:56:57.782Z,5.00
2023-04-23T12:59:25.930Z,2.23
2023-04-23T13:01:54.156Z,3.93
2023-04-23T13:04:23.701Z,4.53
2023-04-23T13:06:52.895Z,3.60
2023-04-23T13:09:21.879Z,4.80
2023-04-23T13:11:50.584Z,5.23
2023-04-23T13:14:19.188Z,5.10
2023-04-23T13:16:47.408Z,5.57
2023-04-23T13:19:16.928Z,4.80
2023-04-23T13:21:46.882Z,4.70
2023-04-23T13:24:15.063Z,7.83
2023-04-23T13:26:43.262Z,5.97
2023-04-23T13:29:11.403Z,4.00
2023-04-23T13:31:39.579Z,6.37
2023-04-23T13:34:07.857Z,6.13
2023-04-23T13:36:37.161Z,7.20
2023-04-23T13:39:07.318Z,7.47
2023-04-23T13:41:35.641Z,6.87
2023-04-23T13:44:03.835Z,7.50
2023-04-23T13:46:32.212Z,6.63
2023-04-23T13:49:01.203Z,9.53
2023-04-23T13:51:35.317Z,8.80
2023-04-23T13:54:04.406Z,11.23
2023-04-23T13:56:34.218Z,10.47
2023-04-23T14:01:35.363Z,8.70
2023-04-23T14:04:04.730Z,11.07
2023-04-23T14:06:32.947Z,9.90
2023-04-23T14:09:01.095Z,9.00
2023-04-23T14:11:29.228Z,8.80
2023-04-23T14:14:00.767Z,10.80
2023-04-23T14:16:29.024Z,8.93
2023-04-23T14:18:58.444Z,4.70
2023-04-23T14:21:26.658Z,4.60
2023-04-23T14:23:57.611Z,5.57
2023-04-23T14:26:44.914Z,7.20
2023-04-23T14:29:25.235Z,4.00
2023-04-23T14:31:53.481Z,5.87
2023-04-23T14:34:22.153Z,4.33
2023-04-23T14:36:52.608Z,3.50
2023-04-23T14:39:20.791Z,4.50
2023-04-23T14:41:48.979Z,4.73
2023-04-23T14:44:17.220Z,3.03
2023-04-23T14:46:47.985Z,3.57
2023-04-23T14:49:16.121Z,4.03
2023-04-23T14:51:44.352Z,4.57
2023-04-23T14:54:12.526Z,3.70
2023-04-23T14:56:42.088Z,5.77
2023-04-23T14:59:10.276Z,5.37
2023-04-23T15:01:38.502Z,5.50
2023-04-23T15:04:08.183Z,5.57
2023-04-23T15:06:36.478Z,5.47
2023-04-23T15:09:04.622Z,6.30
2023-04-23T15:11:33.203Z,6.77
2023-04-23T15:14:04.485Z,6.87
2023-04-23T15:19:06.246Z,6.73
2023-04-23T15:21:35.796Z,7.23
2023-04-23T15:24:04.036Z,4.97
2023-04-23T15:26:33.784Z,4.93
2023-04-23T15:29:03.119Z,4.00
2023-04-23T15:31:31.307Z,3.93
2023-04-23T15:33:59.476Z,5.60
2023-04-23T15:36:27.706Z,3.90
2023-04-23T15:38:57.207Z,4.47
2023-04-23T15:41:26.989Z,2.70
2023-04-23T15:43:55.571Z,3.23
2023-04-23T15:46:23.819Z,4.50
2023-04-23T15:48:51.996Z,4.93
2023-04-23T15:51:20.188Z,4.37
2023-04-23T15:53:48.391Z,4.57
2023-04-23T15:56:17.856Z,3.37
2023-04-23T15:58:46.005Z,3.30
2023-04-23T16:01:14.515Z,3.77
2023-04-23T16:03:53.524Z,2.13
2023-04-23T16:06:31.828Z,2.67
2023-04-23T16:09:01.222Z,2.77
2023-04-23T16:11:30.755Z,3.20
2023-04-23T16:13:59.001Z,4.57
2023-04-23T16:16:27.164Z,3.23
2023-04-23T16:18:57.117Z,4.00
2023-04-23T16:21:27.942Z,3.33
2023-04-23T16:23:56.124Z,3.83
2023-04-23T16:26:24.329Z,4.67
2023-04-23T16:29:05.616Z,2.97
2023-04-23T16:31:34.494Z,3.23
2023-04-23T16:34:02.727Z,4.17
2023-04-23T16:36:32.502Z,4.80
2023-04-23T16:39:00.754Z,4.10
2023-04-23T16:41:29.134Z,2.47
2023-04-23T16:43:58.747Z,2.73
2023-04-23T16:46:30.880Z,2.90
2023-04-23T16:48:59.464Z,5.57
2023-04-23T16:51:28.409Z,3.57
2023-04-23T16:53:56.691Z,4.50
2023-04-23T16:56:24.880Z,5.77
2023-04-23T16:58:53.192Z,4.97
2023-04-23T17:01:22.804Z,3.43
2023-04-23T17:03:51.243Z,4.83
2023-04-23T17:06:30.168Z,5.13
2023-04-23T17:08:58.893Z,4.17
2023-04-23T17:11:27.651Z,3.00
2023-04-23T17:13:56.126Z,3.03
2023-04-23T17:16:26.628Z,3.77
2023-04-23T17:18:55.437Z,4.37
2023-04-23T17:21:23.714Z,3.40
2023-04-23T17:23:51.880Z,4.03
2023-04-23T17:26:20.169Z,3.60
2023-04-23T17:28:48.358Z,5.60
2023-04-23T17:31:16.602Z,4.23
2023-04-23T17:33:49.071Z,6.13
2023-04-23T17:36:17.832Z,3.87
2023-04-23T17:38:46.190Z,5.37
2023-04-23T17:41:14.410Z,6.50
2023-04-23T17:43:42.652Z,5.50
2023-04-23T17:46:10.890Z,3.97
2023-04-23T17:48:39.105Z,4.47
2023-04-23T17:51:08.703Z,5.53
2023-04-23T17:53:37.395Z,3.93
2023-04-23T17:56:05.573Z,4.10
2023-04-23T17:58:34.829Z,3.53
2023-04-23T18:01:04.253Z,4.73
2023-04-23T18:03:33.362Z,5.33
2023-04-23T18:06:01.678Z,4.20
2023-04-23T18:08:31.423Z,4.30
2023-04-23T18:10:59.905Z,3.47
2023-04-23T18:13:28.150Z,2.90
2023-04-23T18:15:56.344Z,4.63
2023-04-23T18:18:24.588Z,4.73
2023-04-23T18:20:52.823Z,4.57
2023-04-23T18:23:21.978Z,7.20
2023-04-23T18:25:51.509Z,5.57
2023-04-23T18:28:19.660Z,6.70
2023-04-23T18:30:47.962Z,5.47
2023-04-23T18:33:26.453Z,4.73
2023-04-23T18:35:59.166Z,4.37
2023-04-23T18:38:31.670Z,4.43
2023-04-23T18:41:04.331Z,3.33
2023-04-23T18:43:33.400Z,3.97
2023-04-23T18:46:01.683Z,4.20
2023-04-23T18:48:42.429Z,3.70
2023-04-23T18:51:23.013Z,4.00
2023-04-23T18:53:51.269Z,4.80
2023-04-23T18:56:20.773Z,4.67
2023-04-23T18:58:48.975Z,3.30
2023-04-23T19:01:17.163Z,4.57
2023-04-23T19:03:45.531Z,3.40
2023-04-23T19:06:13.932Z,4.00
2023-04-23T19:08:42.460Z,5.20
2023-04-23T19:11:10.816Z,5.73
2023-04-23T19:13:40.459Z,5.33
2023-04-23T19:16:10.136Z,4.83
2023-04-23T19:18:38.372Z,5.67
2023-04-23T19:21:06.916Z,6.70
2023-04-23T19:23:35.510Z,4.93
2023-04-23T19:26:04.038Z,4.90
2023-04-23T19:28:32.252Z,4.47
2023-04-23T19:31:01.922Z,4.73
2023-04-23T19:33:30.096Z,6.77
2023-04-23T19:35:58.304Z,5.97
2023-04-23T19:38:26.452Z,7.20
2023-04-23T19:40:54.665Z,10.10
2023-04-23T19:43:22.821Z,8.53
2023-04-23T19:45:51.736Z,7.63
2023-04-23T19:48:21.284Z,10.30
2023-04-23T19:50:49.569Z,11.10
2023-04-23T19:53:17.762Z,11.17
2023-04-23T19:55:46.011Z,10.50
2023-04-23T19:58:15.915Z,12.63
2023-04-23T20:00:44.488Z,12.87
2023-04-23T20:03:12.916Z,12.07
2023-04-23T20:05:44.967Z,10.63
2023-04-23T20:08:25.432Z,11.43
2023-04-23T20:10:53.922Z,13.67
2023-04-23T20:13:23.492Z,15.67
2023-04-23T20:15:53.600Z,13.40
2023-04-23T20:18:22.176Z,13.53
2023-04-23T20:20:52.984Z,11.13
2023-04-23T20:23:21.180Z,14.17
2023-04-23T20:25:49.500Z,12.77
2023-04-23T20:28:17.836Z,16.37
2023-04-23T20:30:46.177Z,11.97
2023-04-23T20:33:14.402Z,12.83
2023-04-23T20:35:43.025Z,12.07
2023-04-23T20:38:12.894Z,10.03
2023-04-23T20:40:41.164Z,11.10
2023-04-23T20:43:09.775Z,10.80
2023-04-23T20:45:37.951Z,10.07
2023-04-23T20:48:06.459Z,9.73
2023-04-23T20:50:34.636Z,9.97
2023-04-23T20:53:02.874Z,11.63
2023-04-23T20:55:32.443Z,8.03
2023-04-23T20:58:00.699Z,7.03
2023-04-23T21:00:29.309Z,7.50
2023-04-23T21:02:57.534Z,7.47
2023-04-23T21:05:26.192Z,7.67
2023-04-23T21:07:54.536Z,5.50
2023-04-23T21:10:22.818Z,6.20
2023-04-23T21:12:52.569Z,6.17
2023-04-23T21:15:21.029Z,6.23
2023-04-23T21:17:49.253Z,8.33
2023-04-23T21:20:17.535Z,7.90
2023-04-23T21:22:45.927Z,10.67
2023-04-23T21:25:14.186Z,8.30
2023-04-23T21:27:45.446Z,7.57
2023-04-23T21:30:20.759Z,8.10
2023-04-23T21:32:50.781Z,7.03
2023-04-23T21:35:19.452Z,6.37
2023-04-23T21:37:47.668Z,4.10
2023-04-23T21:40:15.877Z,4.47
2023-04-23T21:42:46.360Z,4.67
2023-04-23T21:45:14.602Z,5.83
2023-04-23T21:47:44.209Z,4.07
2023-04-23T21:50:12.720Z,6.40
2023-04-23T21:52:43.902Z,8.20
2023-04-23T21:55:12.716Z,12.47
2023-04-23T21:57:40.928Z,22.93
2023-04-23T22:00:11.287Z,21.40
2023-04-23T22:02:40.314Z,11.97
2023-04-23T22:05:11.029Z,13.80
2023-04-23T22:07:41.310Z,7.23
2023-04-23T22:10:11.411Z,5.77
2023-04-23T22:12:39.739Z,7.73
2023-04-23T22:15:08.510Z,14.63
2023-04-23T22:17:38.432Z,14.03
2023-04-23T22:20:07.512Z,25.23
2023-04-23T22:22:37.692Z,25.77
2023-04-23T22:25:06.731Z,21.50
2023-04-23T22:27:34.958Z,17.30
2023-04-23T22:30:03.862Z,36.03
2023-04-23T22:32:32.292Z,46.80
2023-04-23T22:35:01.157Z,47.03
2023-04-23T22:37:29.392Z,71.10
2023-04-23T22:39:59.242Z,99.83
2023-04-23T22:42:27.495Z,91.07
2023-04-23T22:44:55.691Z,99.43
2023-04-23T22:47:23.882Z,134.27
2023-04-23T22:49:52.176Z,113.57
2023-04-23T22:52:20.748Z,118.17
2023-04-23T22:54:48.855Z,101.60
2023-04-23T22:57:18.354Z,107.60
2023-04-23T22:59:46.558Z,131.73
2023-04-23T23:02:14.715Z,141.20
2023-04-23T23:04:42.941Z,145.07
2023-04-23T23:07:11.209Z,149.97
2023-04-23T23:09:39.376Z,170.03
2023-04-23T23:12:08.284Z,199.57
2023-04-23T23:14:38.182Z,210.27
2023-04-23T23:17:06.645Z,204.40
2023-04-23T23:19:34.940Z,207.13
2023-04-23T23:22:03.906Z,234.57
2023-04-23T23:24:32.082Z,227.23
2023-04-23T23:27:01.385Z,218.90
2023-04-23T23:29:29.623Z,226.33
2023-04-23T23:31:59.934Z,227.13
2023-04-23T23:34:28.113Z,289.37
2023-04-23T23:36:56.398Z,236.70
2023-04-23T23:39:24.732Z,269.60
2023-04-23T23:41:52.923Z,274.97
2023-04-23T23:44:21.145Z,316.53
2023-04-23T23:46:49.426Z,260.70
2023-04-23T23:49:20.212Z,232.83
2023-04-23T23:51:48.477Z,226.07
2023-04-23T23:54:16.771Z,269.90
2023-04-23T23:56:44.941Z,334.80
2023-04-23T23:59:13.373Z,288.53
